Map

Track Data

SID SEASON NUMBER BASIN SUBBASIN NAME ISO_TIME NATURE LAT LON WMO_WIND WMO_PRES WMO_AGENCY TRACK_TYPE DIST2LAND LANDFALL IFLAG USA_AGENCY USA_ATCF_ID USA_LAT USA_LON USA_RECORD USA_STATUS USA_WIND USA_PRES USA_SSHS USA_R34_NE USA_R34_SE USA_R34_SW USA_R34_NW USA_R50_NE USA_R50_SE USA_R50_SW USA_R50_NW USA_R64_NE USA_R64_SE USA_R64_SW USA_R64_NW USA_POCI USA_ROCI USA_RMW USA_EYE TOKYO_LAT TOKYO_LON TOKYO_GRADE TOKYO_WIND TOKYO_PRES TOKYO_R50_DIR TOKYO_R50_LONG TOKYO_R50_SHORT TOKYO_R30_DIR TOKYO_R30_LONG TOKYO_R30_SHORT TOKYO_LAND CMA_LAT CMA_LON CMA_CAT CMA_WIND CMA_PRES HKO_LAT HKO_LON HKO_CAT HKO_WIND HKO_PRES NEWDELHI_LAT NEWDELHI_LON NEWDELHI_GRADE NEWDELHI_WIND NEWDELHI_PRES NEWDELHI_CI NEWDELHI_DP NEWDELHI_POCI REUNION_LAT REUNION_LON REUNION_TYPE REUNION_WIND REUNION_PRES REUNION_TNUM REUNION_CI REUNION_RMW REUNION_R34_NE REUNION_R34_SE REUNION_R34_SW REUNION_R34_NW REUNION_R50_NE REUNION_R50_SE REUNION_R50_SW REUNION_R50_NW REUNION_R64_NE REUNION_R64_SE REUNION_R64_SW REUNION_R64_NW BOM_LAT BOM_LON BOM_TYPE BOM_WIND BOM_PRES BOM_TNUM BOM_CI BOM_RMW BOM_R34_NE BOM_R34_SE BOM_R34_SW BOM_R34_NW BOM_R50_NE BOM_R50_SE BOM_R50_SW BOM_R50_NW BOM_R64_NE BOM_R64_SE BOM_R64_SW BOM_R64_NW BOM_ROCI BOM_POCI BOM_EYE BOM_POS_METHOD BOM_PRES_METHOD NADI_LAT NADI_LON NADI_CAT NADI_WIND NADI_PRES WELLINGTON_LAT WELLINGTON_LON WELLINGTON_WIND WELLINGTON_PRES DS824_LAT DS824_LON DS824_STAGE DS824_WIND DS824_PRES TD9636_LAT TD9636_LON TD9636_STAGE TD9636_WIND TD9636_PRES TD9635_LAT TD9635_LON TD9635_WIND TD9635_PRES TD9635_ROCI NEUMANN_LAT NEUMANN_LON NEUMANN_CLASS NEUMANN_WIND NEUMANN_PRES MLC_LAT MLC_LON MLC_CLASS MLC_WIND MLC_PRES USA_GUST BOM_GUST BOM_GUST_PER REUNION_GUST REUNION_GUST_PER USA_SEAHGT USA_SEARAD_NE USA_SEARAD_SE USA_SEARAD_SW USA_SEARAD_NW STORM_SPEED STORM_DIR
1980317N11075 1980 97 NI AS NOT_NAMED 1980-11-12 02:00:00 NR 11.3000 74.8000 main 88 88 __________O___ -1 11.3000 74.8000 0 20 7 274
1980317N11075 1980 97 NI AS NOT_NAMED 1980-11-12 03:00:00 NR 11.3074 74.6856 main 95 95 __________P___ -1 11.3074 74.6856 0 20 7 272
1980317N11075 1980 97 NI AS NOT_NAMED 1980-11-12 06:00:00 TS 11.3179 74.3270 main 125 125 O________OP___ jtwc_io IO031980 11.3000 74.3000 20 -1 11.3000 74.3000 TC 20 11.3298 74.3450 0 21 7 274
1980317N11075 1980 97 NI AS NOT_NAMED 1980-11-12 09:00:00 TS 11.3581 74.0018 main 147 147 P________PP___ IO031980 11.3626 73.9901 22 -1 11.3626 73.9901 TC 22 11.3535 74.0135 0 22 6 277
1980317N11075 1980 97 NI AS NOT_NAMED 1980-11-12 12:00:00 TS 11.3920 73.6992 main 176 176 O________OP___ jtwc_io IO031980 11.4000 73.7000 25 -1 11.4000 73.7000 TC 25 11.3801 73.6980 0 24 6 275
1980317N11075 1980 97 NI AS NOT_NAMED 1980-11-12 14:00:00 TS 11.4016 73.5169 main 195 195 P________PO___ IO031980 11.4024 73.5254 25 -1 11.4024 73.5254 TC 25 11.4000 73.5000 1 25 5 273
1980317N11075 1980 97 NI AS NOT_NAMED 1980-11-12 15:00:00 TS 11.4036 73.4301 main 205 205 P________PP___ IO031980 11.4000 73.4425 25 -1 11.4000 73.4425 TC 25 11.4108 73.4054 1 25 5 272
1980317N11075 1980 97 NI AS NOT_NAMED 1980-11-12 18:00:00 TS 11.4159 73.1792 main 225 225 O________OP___ jtwc_io IO031980 11.4000 73.2000 25 -1 11.4000 73.2000 TC 25 11.4477 73.1375 1 25 5 276
1980317N11075 1980 97 NI AS NOT_NAMED 1980-11-12 21:00:00 TS 11.4546 72.9296 main 249 249 P________PP___ IO031980 11.4350 72.9500 25 -1 11.4350 72.9500 TC 25 11.4940 72.8888 1 25 5 282
1980317N11075 1980 97 NI AS NOT_NAMED 1980-11-13 00:00:00 TS 11.5175 72.6843 main 269 269 O________OP___ jtwc_io IO031980 11.5000 72.7000 25 -1 11.5000 72.7000 TC 25 11.5525 72.6530 1 25 5 286
1980317N11075 1980 97 NI AS NOT_NAMED 1980-11-13 02:00:00 TS 11.5725 72.5222 main 283 283 P________PO___ IO031980 11.5587 72.5333 25 -1 11.5587 72.5333 TC 25 11.6000 72.5000 1 25 5 290
1980317N11075 1980 97 NI AS NOT_NAMED 1980-11-13 03:00:00 TS 11.6039 72.4389 main 293 293 P________PP___ IO031980 11.5925 72.4500 25 -1 11.5925 72.4500 TC 25 11.6266 72.4167 1 25 5 292
1980317N11075 1980 97 NI AS NOT_NAMED 1980-11-13 06:00:00 TS 11.7058 72.1901 main 308 308 O________OP___ jtwc_io IO031980 11.7000 72.2000 25 -1 11.7000 72.2000 TC 25 11.7175 72.1704 1 25 5 292
1980317N11075 1980 97 NI AS NOT_NAMED 1980-11-13 09:00:00 TS 11.8067 71.9355 main 334 334 P________PP___ IO031980 11.8000 71.9350 25 -1 11.8000 71.9350 TC 25 11.8201 71.9366 1 25 5 293
1980317N11075 1980 97 NI AS NOT_NAMED 1980-11-13 12:00:00 TS 11.9094 71.7082 main 351 351 O________OP___ jtwc_io IO031980 11.9000 71.7000 25 -1 11.9000 71.7000 TC 25 11.9281 71.7246 1 25 5 296
1980317N11075 1980 97 NI AS NOT_NAMED 1980-11-13 14:00:00 TS 11.9778 71.5858 main 359 359 P________PO___ IO031980 11.9666 71.5787 25 -1 11.9666 71.5787 TC 25 12.0000 71.6000 1 25 4 300
1980317N11075 1980 97 NI AS NOT_NAMED 1980-11-13 15:00:00 TS 12.0107 71.5333 main 369 367 P________PP___ IO031980 12.0000 71.5275 25 -1 12.0000 71.5275 TC 25 12.0321 71.5449 1 25 3 306
1980317N11075 1980 97 NI AS NOT_NAMED 1980-11-13 18:00:00 TS 12.1093 71.4005 main 377 375 O________OP___ jtwc_io IO031980 12.1000 71.4000 25 -1 12.1000 71.4000 TC 25 12.1278 71.4016 1 25 3 310
1980317N11075 1980 97 NI AS NOT_NAMED 1980-11-13 21:00:00 TS 12.2084 71.2939 main 386 384 P________PP___ IO031980 12.2000 71.3000 25 -1 12.2000 71.3000 TC 25 12.2252 71.2818 1 25 3 314
1980317N11075 1980 97 NI AS NOT_NAMED 1980-11-14 00:00:00 TS 12.3092 71.1909 main 394 394 O________OP___ jtwc_io IO031980 12.3000 71.2000 25 -1 12.3000 71.2000 TC 25 12.3276 71.1728 1 25 3 311
1980317N11075 1980 97 NI AS NOT_NAMED 1980-11-14 02:00:00 TS 12.3742 71.1053 main 403 403 P________PO___ IO031980 12.3612 71.1079 25 -1 12.3612 71.1079 TC 25 12.4000 71.1000 1 25 3 307
1980317N11075 1980 97 NI AS NOT_NAMED 1980-11-14 03:00:00 TS 12.4074 71.0586 main 403 403 P________PP___ IO031980 12.3925 71.0575 25 -1 12.3925 71.0575 TC 25 12.4371 71.0608 1 25 4 308
1980317N11075 1980 97 NI AS NOT_NAMED 1980-11-14 06:00:00 TS 12.5178 70.9147 main 421 419 O________OP___ jtwc_io IO031980 12.5000 70.9000 25 -1 12.5000 70.9000 TC 25 12.5533 70.9441 1 25 4 312
1980317N11075 1980 97 NI AS NOT_NAMED 1980-11-14 09:00:00 TS 12.6540 70.7747 main 427 427 P________PP___ IO031980 12.6425 70.7500 25 -1 12.6425 70.7500 TC 25 12.6770 70.8242 1 25 4 316
1980317N11075 1980 97 NI AS NOT_NAMED 1980-11-14 12:00:00 TS 12.8028 70.6316 main 439 433 O________OP___ jtwc_io IO031980 12.8000 70.6000 25 -1 12.8000 70.6000 TC 25 12.8083 70.6947 1 25 4 316
1980317N11075 1980 97 NI AS NOT_NAMED 1980-11-14 14:00:00 TS 12.9000 70.5333 main 441 441 P________PO___ IO031980 12.9000 70.5000 25 -1 12.9000 70.5000 TC 25 12.9000 70.6000 1 25 4 314
1980317N11075 1980 97 NI AS NOT_NAMED 1980-11-14 15:00:00 TS 12.9489 70.4816 main 441 435 P________PP___ IO031980 12.9500 70.4500 25 -1 12.9500 70.4500 TC 25 12.9467 70.5447 1 25 4 314
1980317N11075 1980 97 NI AS NOT_NAMED 1980-11-14 18:00:00 TS 13.0974 70.3221 main 448 442 O________OP___ jtwc_io IO031980 13.1000 70.3000 XX 25 -5 13.1000 70.3000 TC 25 13.0922 70.3662 1 26 4 313
1980317N11075 1980 97 NI AS NOT_NAMED 1980-11-14 21:00:00 TS 13.2478 70.1554 main 452 452 P________PP___ IO031980 13.2500 70.1425 XX 27 -5 13.2500 70.1425 TC 27 13.2435 70.1811 1 27 4 314
1980317N11075 1980 97 NI AS NOT_NAMED 1980-11-15 00:00:00 TS 13.3991 70.0016 main 461 461 O________OP___ jtwc_io IO031980 13.4000 70.0000 XX 30 -5 13.4000 70.0000 TC 30 13.3974 70.0048 1 29 4 317
1980317N11075 1980 97 NI AS NOT_NAMED 1980-11-15 02:00:00 TS 13.5000 69.9169 main 466 466 P________PO___ IO031980 13.5000 69.9254 XX 30 -5 13.5000 69.9254 TC 30 13.5000 69.9000 1 30 4 321
1980317N11075 1980 97 NI AS NOT_NAMED 1980-11-15 03:00:00 TS 13.5500 69.8821 main 466 462 P________PP___ IO031980 13.5500 69.8925 XX 30 -5 13.5500 69.8925 TC 30 13.5500 69.8615 1 30 4 327
1980317N11075 1980 97 NI AS NOT_NAMED 1980-11-15 06:00:00 TS 13.6999 69.7882 main 468 465 O________OP___ jtwc_io IO031980 13.7000 69.8000 XX 30 -5 13.7000 69.8000 TC 30 13.6998 69.7645 1 30 3 330
1980317N11075 1980 97 NI AS NOT_NAMED 1980-11-15 09:00:00 TS 13.8499 69.7028 main 475 470 P________PP___ IO031980 13.8500 69.7150 XX 30 -5 13.8500 69.7150 TC 30 13.8498 69.6784 1 30 4 327
1980317N11075 1980 97 NI AS NOT_NAMED 1980-11-15 12:00:00 TS 14.0000 69.5938 main 475 475 O________OP___ jtwc_io IO031980 14.0000 69.6000 XX 30 -5 14.0000 69.6000 TC 30 13.9999 69.5815 1 30 4 320
1980317N11075 1980 97 NI AS NOT_NAMED 1980-11-15 14:00:00 TS 14.1000 69.4883 main 481 481 P________PO___ IO031980 14.1000 69.4825 XX 30 -5 14.1000 69.4825 TC 30 14.1000 69.5000 1 30 4 313
1980317N11075 1980 97 NI AS NOT_NAMED 1980-11-15 15:00:00 TS 14.1512 69.4252 main 488 488 P________PP___ IO031980 14.1500 69.4150 XX 30 -5 14.1500 69.4150 TC 30 14.1537 69.4455 1 30 5 308
1980317N11075 1980 97 NI AS NOT_NAMED 1980-11-15 18:00:00 TS 14.3055 69.2199 main 503 498 O________OP___ jtwc_io IO031980 14.3000 69.2000 XX 30 -5 14.3000 69.2000 TC 30 14.3164 69.2596 1 30 5 308
1980317N11075 1980 97 NI AS NOT_NAMED 1980-11-15 21:00:00 TS 14.4630 69.0123 main 512 512 P________PP___ IO031980 14.4575 68.9925 XX 30 -5 14.4575 68.9925 TC 30 14.4740 69.0520 1 30 5 307
1980317N11075 1980 97 NI AS NOT_NAMED 1980-11-16 00:00:00 TS 14.6057 68.8127 main 527 527 O________OP___ jtwc_io IO031980 14.6000 68.8000 XX 30 -5 14.6000 68.8000 TC 30 14.6172 68.8382 1 30 5 306
1980317N11075 1980 97 NI AS NOT_NAMED 1980-11-16 02:00:00 TS 14.6830 68.6983 main 532 532 P________PO___ IO031980 14.6745 68.6975 XX 30 -5 14.6745 68.6975 TC 30 14.7000 68.7000 1 30 4 305
1980317N11075 1980 97 NI AS NOT_NAMED 1980-11-16 03:00:00 TS 14.7162 68.6469 main 542 538 P________PP___ IO031980 14.7075 68.6499 XX 30 -5 14.7075 68.6499 TC 30 14.7338 68.6407 1 30 4 301
1980317N11075 1980 97 NI AS NOT_NAMED 1980-11-16 06:00:00 TS 14.8060 68.4898 main 548 548 O________OP___ jtwc_io IO031980 14.8000 68.5000 XX 30 -5 14.8000 68.5000 TC 30 14.8181 68.4694 1 30 4 299
1980317N11075 1980 97 NI AS NOT_NAMED 1980-11-16 09:00:00 TS 14.9006 68.3053 main 564 564 P________PP___ IO031980 14.9075 68.3075 XX 30 -5 14.9075 68.3075 TC 30 14.8867 68.3007 1 30 4 296
1980317N11075 1980 97 NI AS NOT_NAMED 1980-11-16 12:00:00 TS 14.9840 68.1085 main 581 581 O________OP___ jtwc_io IO031980 15.0000 68.1000 XX 30 -5 15.0000 68.1000 TC 30 14.9521 68.1253 1 30 4 291
1980317N11075 1980 97 NI AS NOT_NAMED 1980-11-16 14:00:00 TS 15.0239 67.9777 main 591 591 P________PO___ IO031980 15.0358 67.9666 XX 30 -5 15.0358 67.9666 TC 30 15.0000 68.0000 1 30 4 286
1980317N11075 1980 97 NI AS NOT_NAMED 1980-11-16 15:00:00 TS 15.0388 67.9081 main 601 601 P________PP___ IO031980 15.0500 67.8999 XX 30 -5 15.0500 67.8999 TC 30 15.0165 67.9243 1 30 4 283
1980317N11075 1980 97 NI AS NOT_NAMED 1980-11-16 18:00:00 TS 15.0886 67.6944 main 619 619 O________OP___ jtwc_io IO031980 15.1000 67.7000 XX 30 -5 15.1000 67.7000 TC 30 15.0659 67.6831 1 31 4 286
1980317N11075 1980 97 NI AS NOT_NAMED 1980-11-16 21:00:00 TS 15.1598 67.4800 main 637 637 P________PP___ IO031980 15.1700 67.4999 XX 32 -5 15.1700 67.4999 TC 32 15.1393 67.4403 1 32 5 296
1980317N11075 1980 97 NI AS NOT_NAMED 1980-11-17 00:00:00 TS 15.2893 67.2736 main 655 655 O________OP___ jtwc_io IO031980 15.3000 67.3000 XX 35 -5 15.3000 67.3000 TC 35 15.2680 67.2209 1 34 5 307
1980317N11075 1980 97 NI AS NOT_NAMED 1980-11-17 02:00:00 TS 15.4142 67.1336 main 674 672 P________PO___ IO031980 15.4213 67.1504 XX 35 -5 15.4213 67.1504 TC 35 15.4000 67.1000 2 35 6 316
1980317N11075 1980 97 NI AS NOT_NAMED 1980-11-17 03:00:00 TS 15.4952 67.0655 main 672 672 P________PP___ IO031980 15.4975 67.0776 XX 35 -5 15.4975 67.0776 TC 35 15.4905 67.0415 2 35 7 330
1980317N11075 1980 97 NI AS NOT_NAMED 1980-11-17 06:00:00 TS 15.8079 66.8978 main 685 654 O________OP___ jtwc_io IO031980 15.8000 66.9000 XX 35 -5 15.8000 66.9000 TC 35 15.8238 66.8935 2 35 8 340
1980317N11075 1980 97 NI AS NOT_NAMED 1980-11-17 09:00:00 TS 16.2468 66.7879 main 654 608 P________PP___ IO031980 16.2574 66.7826 XX 35 -5 16.2649 66.7826 TC 35 16.2179 66.7984 2 35 9 353
1980317N11075 1980 97 NI AS NOT_NAMED 1980-11-17 12:00:00 TS 16.6775 66.7906 main 608 584 O________OP___ jtwc_io IO031980 16.7000 66.8000 XX 35 -5 16.7000 66.8000 TC 35 16.6324 66.7719 2 35 8 8
1980317N11075 1980 97 NI AS NOT_NAMED 1980-11-17 14:00:00 TS 16.8698 66.8759 main 584 584 P________PO___ IO031980 16.8729 66.9138 XX 35 -5 16.8366 66.9138 TC 35 16.9000 66.8000 2 35 6 28
1980317N11075 1980 97 NI AS NOT_NAMED 1980-11-17 15:00:00 TS 16.9454 66.9403 main 584 547 P________PP___ IO031980 16.9375 66.9975 XX 35 -5 16.8800 66.9976 TC 35 17.0187 66.8259 2 35 6 46
1980317N11075 1980 97 NI AS NOT_NAMED 1980-11-17 18:00:00 TS 17.1551 67.1877 main 538 501 O________OP___ jtwc_io IO031980 17.1000 67.3000 XX 35 -5 17.0000 67.3000 TC 35 17.3654 66.9630 2 35 7 50
1980317N11075 1980 97 NI AS NOT_NAMED 1980-11-17 21:00:00 TS 17.3777 67.4765 main 501 471 P________PP___ IO031980 17.2476 67.6300 XX 35 -5 17.1901 67.6299 TC 35 17.6955 67.1695 2 35 7 46
1980317N11075 1980 97 NI AS NOT_NAMED 1980-11-18 00:00:00 TS 17.6686 67.7402 main 461 437 O________OP___ jtwc_io IO031980 17.5000 67.9000 XX 35 -5 17.5000 67.9000 TC 35 18.0057 67.4205 2 35 8 30
1980317N11075 1980 97 NI AS NOT_NAMED 1980-11-18 02:00:00 TS 17.9652 67.8343 main 428 413 P________PO___ IO031980 17.8438 67.9514 XX 35 -5 17.8517 67.9514 TC 35 18.2000 67.6000 2 35 10 15
1980317N11075 1980 97 NI AS NOT_NAMED 1980-11-18 03:00:00 TS 18.1298 67.8654 main 413 362 P________PP___ IO031980 18.0424 67.9578 XX 35 -5 18.0499 67.9579 TC 35 18.2971 67.6804 2 34 10 12
1980317N11075 1980 97 NI AS NOT_NAMED 1980-11-18 06:00:00 TS 18.5911 67.9792 main 362 322 O________OP___ jtwc_io IO031980 18.6000 68.0000 XX 35 -5 18.6000 68.0000 TC 35 18.5733 67.9376 2 33 8 24
1980317N11075 1980 97 NI AS NOT_NAMED 1980-11-18 09:00:00 TS 18.8823 68.2130 main 322 285 P________PP___ IO031980 18.9100 68.2125 XX 32 -5 18.9100 68.2125 TC 32 18.8270 68.2140 2 32 7 45
1980317N11075 1980 97 NI AS NOT_NAMED 1980-11-18 12:00:00 TS 19.0861 68.5011 main 285 263 O________OP___ jtwc_io IO031980 19.1000 68.5000 XX 30 -5 19.1000 68.5000 TC 30 19.0583 68.5032 2 30 7 54
1980317N11075 1980 97 NI AS NOT_NAMED 1980-11-18 14:00:00 TS 19.2069 68.6948 main 263 248 P________PO___ IO031980 19.2104 68.6922 XX 28 -5 19.2104 68.6922 TC 28 19.2000 68.7000 1 30 7 58
1980317N11075 1980 97 NI AS NOT_NAMED 1980-11-18 15:00:00 TS 19.2593 68.7919 main 248 222 P________PP___ IO031980 19.2575 68.7926 XX 27 -5 19.2575 68.7926 TC 27 19.2629 68.7903 1 29 6 61
1980317N11075 1980 97 NI AS NOT_NAMED 1980-11-18 18:00:00 TS 19.4110 69.0879 main 222 185 O________OP___ jtwc_io IO031980 19.4000 69.1000 XX 25 -5 19.4000 69.1000 TC 25 19.4330 69.0637 1 26 6 59
1980317N11075 1980 97 NI AS NOT_NAMED 1980-11-18 21:00:00 TS 19.5926 69.3789 main 185 148 P________PP___ IO031980 19.5924 69.3926 XX 22 -5 19.5924 69.3926 TC 22 19.5930 69.3514 1 24 7 56
1980317N11075 1980 97 NI AS NOT_NAMED 1980-11-19 00:00:00 TS 19.7887 69.6890 main 148 128 O________OP___ jtwc_io IO031980 19.8000 69.7000 XX 20 -5 19.8000 69.7000 TC 20 19.7661 69.6672 1 21 7 57
1980317N11075 1980 97 NI AS NOT_NAMED 1980-11-19 02:00:00 TS 19.9216 69.9140 main 128 113 P________PO___ IO031980 19.9359 69.9233 XX 20 -5 19.9359 69.9233 TC 20 19.9000 69.9000 1 20 8 58
1980317N11075 1980 97 NI AS NOT_NAMED 1980-11-19 03:00:00 TS 19.9907 70.0332 main 113 69 P________PP___ IO031980 20.0027 70.0398 XX 20 -5 20.0027 70.0398 TC 20 19.9748 70.0244 1 20 8 58
1980317N11075 1980 97 NI AS NOT_NAMED 1980-11-19 06:00:00 TS 20.2118 70.4114 main 69 35 O________OP___ jtwc_io IO031980 20.2000 70.4000 XX 20 -5 20.2000 70.4000 TC 20 20.2235 70.4228 1 20 9 57
1980317N11075 1980 97 NI AS NOT_NAMED 1980-11-19 08:00:00 NR 20.4000 70.7000 main 35 __________O___ IO031980 XX -5 TC 20.4000 70.7000 6 20 10 55

About IBTrACS Database

This database is a web-friendly format of International Best Track Archive for Climate Stewardship (IBTrACS), a global best track data archive curated by NOAA dating back to 1842.

Updated: 2021-12-03